Time;durP1;ratioP1;P1;durP2;ratioP2;P2;SDS_P1;SDS_P2;PMS_P1;PMS_P2;Temp;Humidity;BMP_temperature;BMP_pressure;BME280_temperature;BME280_humidity;BME280_pressure;Samples;Min_cycle;Max_cycle;Signal;HPM_P1;HPM_P2
2024/04/06 00:00:44;;;;;;;9.95;2.40;;;;;;;9.60;100.00;100469.38;4995431;28;20821;-85
2024/04/06 00:03:10;;;;;;;11.53;2.20;;;;;;;9.60;100.00;100471.25;5002476;28;20431;-84
2024/04/06 00:05:37;;;;;;;11.80;2.10;;;;;;;9.46;100.00;100477.31;4996900;28;21174;-84
2024/04/06 00:08:04;;;;;;;10.98;2.20;;;;;;;9.43;100.00;100475.16;4996254;28;20430;-85
2024/04/06 00:10:32;;;;;;;14.20;2.47;;;;;;;9.28;100.00;100470.56;4983199;28;20438;-84
2024/04/06 00:12:59;;;;;;;8.27;2.25;;;;;;;9.21;100.00;100474.66;5000440;28;20773;-85
2024/04/06 00:15:26;;;;;;;11.30;2.10;;;;;;;9.24;100.00;100482.25;4999067;28;20419;-84
2024/04/06 00:17:54;;;;;;;12.75;2.47;;;;;;;9.40;100.00;100480.31;4998734;28;20434;-84
2024/04/06 00:20:22;;;;;;;10.80;2.25;;;;;;;9.39;100.00;100484.09;5005222;28;20416;-84
2024/04/06 00:22:48;;;;;;;9.00;1.75;;;;;;;9.24;100.00;100484.97;4999261;28;20793;-84
2024/04/06 00:25:15;;;;;;;9.40;2.00;;;;;;;9.13;100.00;100484.19;4999875;28;20426;-84
2024/04/06 00:27:42;;;;;;;12.05;2.13;;;;;;;9.29;100.00;100484.94;5022917;28;20428;-84
2024/04/06 00:30:10;;;;;;;12.77;2.40;;;;;;;9.24;100.00;100485.78;4996044;28;20430;-84
2024/04/06 00:32:36;;;;;;;12.48;2.45;;;;;;;9.18;100.00;100482.28;5005190;28;20419;-84
2024/04/06 00:35:05;;;;;;;10.50;2.10;;;;;;;9.08;100.00;100490.44;4985192;28;20443;-84
2024/04/06 00:37:32;;;;;;;10.57;2.30;;;;;;;9.15;100.00;100492.84;5001083;28;20434;-84
2024/04/06 00:40:00;;;;;;;12.80;2.25;;;;;;;9.07;100.00;100494.22;5000571;28;20428;-84
2024/04/06 00:42:26;;;;;;;10.17;2.20;;;;;;;9.25;100.00;100492.03;4997790;28;20429;-84
2024/04/06 00:44:54;;;;;;;8.25;1.98;;;;;;;9.11;100.00;100498.00;4999213;28;20829;-85
2024/04/06 00:47:20;;;;;;;9.35;2.10;;;;;;;9.05;100.00;100498.31;4999983;28;20428;-84
2024/04/06 00:49:48;;;;;;;13.10;2.33;;;;;;;9.00;100.00;100499.97;5005117;28;20773;-84
2024/04/06 00:52:15;;;;;;;12.23;2.10;;;;;;;8.95;100.00;100501.84;4991494;28;20436;-84
2024/04/06 00:54:43;;;;;;;12.65;2.63;;;;;;;8.88;100.00;100506.75;4999404;28;20862;-85
2024/04/06 00:57:10;;;;;;;10.40;1.98;;;;;;;8.91;100.00;100511.59;5003662;28;20428;-85
2024/04/06 00:59:39;;;;;;;11.47;2.40;;;;;;;9.06;100.00;100514.34;5001375;28;20804;-85
2024/04/06 01:02:06;;;;;;;9.70;2.10;;;;;;;9.18;100.00;100520.28;4999980;28;20413;-84
2024/04/06 01:04:33;;;;;;;9.00;2.40;;;;;;;9.13;100.00;100522.19;5000806;28;20426;-85
2024/04/06 01:07:00;;;;;;;13.55;2.60;;;;;;;9.04;100.00;100526.53;5003522;28;20427;-84
2024/04/06 01:09:29;;;;;;;11.48;2.55;;;;;;;9.13;100.00;100522.19;4982182;28;20871;-85
2024/04/06 01:11:55;;;;;;;11.55;2.53;;;;;;;9.03;100.00;100523.00;4989900;28;20894;-85
2024/04/06 01:14:23;;;;;;;9.90;2.40;;;;;;;9.09;100.00;100531.97;4999096;28;20439;-83
2024/04/06 01:16:50;;;;;;;9.75;2.20;;;;;;;9.10;100.00;100522.72;5002603;28;20415;-85
2024/04/06 01:19:17;;;;;;;13.23;2.55;;;;;;;9.13;100.00;100527.63;4998653;28;20419;-84
2024/04/06 01:21:44;;;;;;;6.05;2.10;;;;;;;9.17;100.00;100529.50;4998526;28;20428;-84
2024/04/06 01:24:28;;;;;;;12.68;2.38;;;;;;;9.08;100.00;100525.72;4997574;28;20441;-85
2024/04/06 01:26:55;;;;;;;13.15;2.72;;;;;;;9.19;100.00;100526.53;4998230;28;20431;-83
2024/04/06 01:29:26;;;;;;;9.55;2.30;;;;;;;9.08;100.00;100535.78;5002165;28;20428;-85
2024/04/06 01:31:53;;;;;;;10.30;2.67;;;;;;;9.10;100.00;100531.69;5002646;28;20444;-84
2024/04/06 01:34:20;;;;;;;11.68;2.53;;;;;;;9.17;100.00;100531.44;5002305;28;20421;-84
2024/04/06 01:36:47;;;;;;;10.98;2.40;;;;;;;9.10;100.00;100531.69;4999900;28;20429;-85
2024/04/06 01:39:15;;;;;;;12.38;2.30;;;;;;;9.06;100.00;100527.06;5005846;28;20416;-84
2024/04/06 01:41:46;;;;;;;13.90;2.57;;;;;;;9.08;100.00;100528.44;5001939;28;20850;-84
2024/04/06 01:44:13;;;;;;;13.38;2.58;;;;;;;9.02;100.00;100534.97;5018325;28;20420;-84
2024/04/06 01:46:40;;;;;;;11.82;2.60;;;;;;;9.09;100.00;100542.84;4998608;28;20749;-84
2024/04/06 01:49:08;;;;;;;12.18;2.65;;;;;;;8.96;100.00;100536.88;5000433;28;20425;-85
2024/04/06 01:51:34;;;;;;;10.20;2.75;;;;;;;8.90;100.00;100539.84;4999919;28;20435;-84
2024/04/06 01:54:02;;;;;;;11.25;2.70;;;;;;;8.87;100.00;100535.78;4999699;28;21124;-86
2024/04/06 01:56:28;;;;;;;10.10;2.28;;;;;;;8.97;100.00;100538.47;5002029;28;20427;-85
2024/04/06 01:58:59;;;;;;;8.15;2.45;;;;;;;8.97;100.00;100548.53;5003949;28;20464;-84
2024/04/06 02:01:26;;;;;;;11.90;2.40;;;;;;;8.97;100.00;100543.09;4982841;28;20434;-84
2024/04/06 02:03:53;;;;;;;12.13;3.00;;;;;;;9.02;100.00;100541.19;5000155;28;21071;-85
2024/04/06 02:06:20;;;;;;;11.57;2.55;;;;;;;9.12;100.00;100534.94;5000462;28;20916;-85
2024/04/06 02:08:47;;;;;;;12.13;2.75;;;;;;;9.14;100.00;100535.50;5001448;28;20427;-85
2024/04/06 02:11:13;;;;;;;10.48;2.50;;;;;;;9.17;100.00;100539.56;5001454;28;20425;-83
2024/04/06 02:13:41;;;;;;;10.90;2.53;;;;;;;9.13;100.00;100542.00;4999785;28;20778;-84
2024/04/06 02:16:09;;;;;;;11.93;2.90;;;;;;;9.11;100.00;100549.59;4997207;28;20436;-84
2024/04/06 02:18:36;;;;;;;8.90;2.42;;;;;;;9.14;100.00;100551.78;5000321;28;20433;-84
2024/04/06 02:21:03;;;;;;;10.50;2.63;;;;;;;9.21;100.00;100559.66;4999182;28;20446;-83
2024/04/06 02:23:31;;;;;;;10.90;2.90;;;;;;;9.18;100.00;100560.19;5001449;28;20426;-84
2024/04/06 02:25:57;;;;;;;9.82;2.92;;;;;;;9.30;100.00;100571.56;4997196;28;20778;-84
2024/04/06 02:28:24;;;;;;;8.25;2.70;;;;;;;9.26;100.00;100564.25;4998036;28;20989;-84
2024/04/06 02:30:53;;;;;;;12.47;3.13;;;;;;;9.22;100.00;100577.56;5003073;28;20423;-84
2024/04/06 02:33:22;;;;;;;10.32;2.80;;;;;;;9.26;100.00;100569.69;5004595;28;20421;-84
2024/04/06 02:35:48;;;;;;;9.02;2.83;;;;;;;9.26;100.00;100569.69;4998302;28;20419;-83
2024/04/06 02:38:15;;;;;;;10.60;3.03;;;;;;;9.25;100.00;100563.44;5013532;28;20420;-84
2024/04/06 02:40:42;;;;;;;10.10;2.65;;;;;;;9.27;100.00;100560.47;4994759;28;20791;-84
2024/04/06 02:43:09;;;;;;;12.30;3.45;;;;;;;9.27;100.00;100571.31;5002022;28;20423;-83
2024/04/06 02:45:36;;;;;;;11.30;3.30;;;;;;;9.23;100.00;100559.38;4989961;28;20432;-84
2024/04/06 02:48:04;;;;;;;10.10;3.20;;;;;;;9.27;100.00;100566.69;4997049;28;20429;-82
2024/04/06 02:50:32;;;;;;;10.10;3.25;;;;;;;9.36;100.00;100567.78;5001050;28;20442;-84
2024/04/06 02:53:00;;;;;;;13.90;3.80;;;;;;;9.33;100.00;100565.59;4997180;28;20438;-84
2024/04/06 02:55:26;;;;;;;9.95;3.67;;;;;;;9.38;100.00;100572.94;4997206;28;20448;-83
2024/04/06 02:57:54;;;;;;;10.05;3.60;;;;;;;9.34;100.00;100569.94;5013213;28;20423;-84
2024/04/06 03:00:20;;;;;;;10.13;3.53;;;;;;;9.43;100.00;100569.38;4988277;28;20442;-83
2024/04/06 03:02:48;;;;;;;11.00;3.85;;;;;;;9.48;100.00;100574.81;4998391;28;20442;-84
2024/04/06 03:05:16;;;;;;;9.43;3.72;;;;;;;9.43;100.00;100570.22;5000024;28;20479;-83
2024/04/06 03:07:45;;;;;;;9.93;3.90;;;;;;;9.41;100.00;100572.38;4996746;28;20432;-84
2024/04/06 03:10:12;;;;;;;15.27;5.05;;;;;;;9.42;100.00;100560.44;4999675;28;20420;-84
2024/04/06 03:12:39;;;;;;;16.30;5.20;;;;;;;9.45;100.00;100575.38;5001937;28;20894;-83
2024/04/06 03:15:06;;;;;;;14.75;7.05;;;;;;;9.42;100.00;100568.56;4997332;28;20431;-83
2024/04/06 03:17:34;;;;;;;13.35;5.60;;;;;;;9.37;100.00;100568.59;4999319;28;20507;-85
2024/04/06 03:20:00;;;;;;;12.55;5.13;;;;;;;9.42;100.00;100565.88;4983253;28;20438;-84
2024/04/06 03:22:27;;;;;;;11.37;4.47;;;;;;;9.34;100.00;100569.13;4997532;28;20415;-84
2024/04/06 03:24:55;;;;;;;12.52;4.97;;;;;;;9.36;100.00;100562.34;5003184;28;20426;-84
2024/04/06 03:27:23;;;;;;;10.50;4.93;;;;;;;9.29;100.00;100559.06;4991349;28;20429;-84
2024/04/06 03:29:49;;;;;;;13.15;5.03;;;;;;;9.27;100.00;100572.13;4981507;28;20439;-83
2024/04/06 03:32:17;;;;;;;12.83;4.50;;;;;;;9.29;100.00;100575.38;4983677;28;20775;-83
2024/04/06 03:34:43;;;;;;;10.93;4.30;;;;;;;9.25;100.00;100577.00;4999067;28;20434;-84
2024/04/06 03:37:11;;;;;;;11.45;4.80;;;;;;;9.26;100.00;100585.97;5013271;28;20424;-84
2024/04/06 03:39:38;;;;;;;10.88;4.10;;;;;;;9.48;100.00;100580.25;4979461;28;21195;-84
2024/04/06 03:42:07;;;;;;;11.25;4.15;;;;;;;9.34;100.00;100590.88;4984981;28;20422;-84
2024/04/06 03:44:34;;;;;;;11.05;4.45;;;;;;;9.23;100.00;100589.25;4999591;28;20415;-83
2024/04/06 03:47:01;;;;;;;13.05;4.53;;;;;;;9.23;100.00;100595.47;4999056;28;20422;-83
2024/04/06 03:49:27;;;;;;;9.82;4.00;;;;;;;9.26;100.00;100596.84;4998416;28;20439;-85
2024/04/06 03:51:55;;;;;;;11.80;4.00;;;;;;;9.23;100.00;100600.91;4993722;28;20909;-84
2024/04/06 03:54:21;;;;;;;12.10;4.33;;;;;;;9.28;100.00;100598.19;4997366;28;20793;-84
2024/04/06 03:56:49;;;;;;;10.98;4.40;;;;;;;9.11;100.00;100600.38;5001716;28;20422;-84
2024/04/06 03:59:16;;;;;;;13.77;4.25;;;;;;;9.15;100.00;100596.03;5002101;28;20429;-84
2024/04/06 04:01:44;;;;;;;12.70;4.30;;;;;;;9.04;100.00;100595.22;5001407;28;20434;-84
2024/04/06 04:04:10;;;;;;;11.25;3.90;;;;;;;9.02;100.00;100595.50;5022434;28;20443;-84
2024/04/06 04:06:38;;;;;;;10.52;3.67;;;;;;;9.03;100.00;100599.00;5000482;28;20435;-84
2024/04/06 04:09:06;;;;;;;10.87;3.63;;;;;;;8.94;100.00;100601.47;5006113;28;20427;-84
2024/04/06 04:11:33;;;;;;;8.90;3.90;;;;;;;8.99;100.00;100600.63;5002235;28;20427;-84
2024/04/06 04:14:00;;;;;;;9.60;4.00;;;;;;;8.85;100.00;100606.63;5003387;28;20425;-84
2024/04/06 04:16:28;;;;;;;10.88;3.60;;;;;;;8.95;100.00;100607.69;5015073;28;20452;-84
2024/04/06 04:18:55;;;;;;;10.15;3.63;;;;;;;9.02;100.00;100617.19;5002471;28;20422;-85
2024/04/06 04:21:22;;;;;;;12.33;3.97;;;;;;;9.06;100.00;100622.09;4991748;28;20426;-83
2024/04/06 04:23:49;;;;;;;11.85;3.67;;;;;;;8.99;100.00;100612.31;5002593;28;20439;-83
2024/04/06 04:26:16;;;;;;;13.32;4.03;;;;;;;8.99;100.00;100609.59;5005944;28;20435;-84
2024/04/06 04:28:43;;;;;;;12.10;3.80;;;;;;;9.13;100.00;100601.72;5002412;28;20425;-84
2024/04/06 04:31:15;;;;;;;13.38;3.92;;;;;;;9.17;100.00;100608.25;5002804;28;21002;-83
2024/04/06 04:33:43;;;;;;;13.05;3.80;;;;;;;9.33;100.00;100600.09;5004837;28;20735;-83
2024/04/06 04:36:12;;;;;;;10.80;3.70;;;;;;;9.47;100.00;100613.91;5001532;28;20645;-84
2024/04/06 04:38:38;;;;;;;9.02;3.67;;;;;;;9.46;100.00;100617.72;5002073;28;20976;-83
2024/04/06 04:41:06;;;;;;;7.40;3.28;;;;;;;9.47;100.00;100630.22;5004485;28;20422;-83
2024/04/06 04:43:33;;;;;;;8.05;3.30;;;;;;;9.44;100.00;100626.13;5002664;28;20732;-84
2024/04/06 04:46:00;;;;;;;10.75;3.47;;;;;;;9.58;100.00;100634.53;5004838;28;20434;-84
2024/04/06 04:48:33;;;;;;;10.40;3.33;;;;;;;9.41;100.00;100626.69;5001529;28;20443;-84
2024/04/06 04:51:02;;;;;;;12.93;3.60;;;;;;;9.40;100.00;100626.97;5006070;28;20432;-83
2024/04/06 04:53:28;;;;;;;11.73;3.40;;;;;;;9.33;100.00;100625.34;5001013;28;20468;-84
2024/04/06 04:55:56;;;;;;;10.48;3.63;;;;;;;9.47;100.00;100624.78;5010634;28;20910;-84
2024/04/06 04:58:22;;;;;;;9.93;3.20;;;;;;;9.57;100.00;100621.22;5005359;28;20432;-84
2024/04/06 05:00:50;;;;;;;11.45;3.25;;;;;;;9.70;100.00;100624.19;5005312;28;20429;-82
2024/04/06 05:03:16;;;;;;;10.52;3.25;;;;;;;9.72;100.00;100623.13;4996674;28;20783;-83
2024/04/06 05:05:43;;;;;;;9.23;3.47;;;;;;;9.77;100.00;100617.69;4997085;28;20864;-83
2024/04/06 05:08:11;;;;;;;10.85;2.92;;;;;;;9.84;100.00;100623.63;5004392;28;20433;-84
2024/04/06 05:10:40;;;;;;;10.30;2.97;;;;;;;9.90;100.00;100624.44;5001410;28;20789;-83
2024/04/06 05:13:06;;;;;;;8.07;3.05;;;;;;;10.01;100.00;100610.53;5002138;28;20423;-84
2024/04/06 05:15:34;;;;;;;8.40;3.13;;;;;;;9.97;100.00;100614.91;5004014;28;20424;-84
2024/04/06 05:18:00;;;;;;;12.37;3.13;;;;;;;9.95;100.00;100614.34;4998787;28;20417;-84
2024/04/06 05:20:28;;;;;;;8.35;3.25;;;;;;;9.91;100.00;100613.28;5019086;28;20415;-83
2024/04/06 05:22:54;;;;;;;6.07;3.13;;;;;;;9.90;100.00;100617.06;5002286;28;20427;-84
2024/04/06 05:25:23;;;;;;;6.25;3.08;;;;;;;9.94;100.00;100614.63;5002989;28;20432;-84
2024/04/06 05:27:49;;;;;;;10.75;3.15;;;;;;;9.96;100.00;100624.13;5003692;28;20756;-84
2024/04/06 05:30:17;;;;;;;10.57;3.33;;;;;;;9.98;100.00;100618.41;4995778;28;20415;-83
2024/04/06 05:32:43;;;;;;;8.53;3.00;;;;;;;9.99;100.00;100633.66;5003307;28;20416;-83
2024/04/06 05:35:11;;;;;;;7.00;3.17;;;;;;;9.98;100.00;100635.53;4997740;28;20444;-84
2024/04/06 05:37:37;;;;;;;8.75;2.95;;;;;;;9.96;100.00;100624.13;5016498;28;20430;-84
2024/04/06 05:40:07;;;;;;;11.07;3.10;;;;;;;10.11;100.00;100612.41;4992053;28;20437;-85
2024/04/06 05:42:35;;;;;;;8.98;3.47;;;;;;;9.97;100.00;100620.34;4997241;28;20428;-84
2024/04/06 05:45:03;;;;;;;12.07;3.22;;;;;;;9.97;100.00;100611.34;5003586;28;20415;-86
2024/04/06 05:47:29;;;;;;;7.90;3.05;;;;;;;9.99;100.00;100601.03;5000344;28;20422;-84
2024/04/06 05:49:57;;;;;;;10.05;3.17;;;;;;;9.93;100.00;100605.66;4999780;28;20888;-85
2024/04/06 05:52:23;;;;;;;12.02;3.30;;;;;;;9.95;100.00;100606.19;4982162;28;20430;-84
2024/04/06 05:54:51;;;;;;;9.95;3.05;;;;;;;9.93;100.00;100608.38;4998262;28;20429;-84
2024/04/06 05:57:17;;;;;;;9.10;2.88;;;;;;;9.91;100.00;100624.16;5002468;28;20425;-85
2024/04/06 05:59:46;;;;;;;10.98;2.95;;;;;;;9.96;100.00;100615.97;5000868;28;20412;-85
2024/04/06 06:02:13;;;;;;;11.37;2.93;;;;;;;9.96;100.00;100624.13;4999302;28;22116;-85
2024/04/06 06:04:44;;;;;;;8.70;3.07;;;;;;;10.04;100.00;100628.19;5015247;28;20523;-83
2024/04/06 06:07:14;;;;;;;9.35;2.80;;;;;;;10.04;100.00;100626.28;4994846;28;20972;-84
2024/04/06 06:09:41;;;;;;;9.65;2.92;;;;;;;10.00;100.00;100633.38;5000463;28;20433;-83
2024/04/06 06:12:08;;;;;;;10.52;3.05;;;;;;;9.99;100.00;100626.28;4999722;28;20420;-83
2024/04/06 06:14:35;;;;;;;10.50;3.00;;;;;;;10.04;100.00;100618.13;4998200;28;20430;-84
2024/04/06 06:17:03;;;;;;;9.32;3.10;;;;;;;10.08;100.00;100612.97;4998844;28;20424;-84
2024/04/06 06:19:31;;;;;;;6.38;2.60;;;;;;;10.23;100.00;100620.22;5000196;28;20441;-84
2024/04/06 06:21:57;;;;;;;8.30;2.60;;;;;;;10.30;100.00;100628.91;4999495;28;20488;-84
2024/04/06 06:24:25;;;;;;;7.40;2.90;;;;;;;10.35;100.00;100636.25;4997746;28;20834;-84
2024/04/06 06:26:54;;;;;;;12.50;3.22;;;;;;;10.48;100.00;100641.09;5001283;28;20426;-83
2024/04/06 06:29:24;;;;;;;10.93;3.03;;;;;;;10.55;100.00;100648.94;4998720;28;20426;-85
2024/04/06 06:31:51;;;;;;;6.82;2.63;;;;;;;10.51;100.00;100645.16;4998862;28;20418;-83
2024/04/06 06:34:20;;;;;;;6.55;2.67;;;;;;;10.60;100.00;100645.38;4995971;28;20426;-84
2024/04/06 06:36:48;;;;;;;7.10;2.85;;;;;;;10.64;100.00;100660.84;4984552;28;20439;-84
2024/04/06 06:39:16;;;;;;;7.90;2.60;;;;;;;10.68;100.00;100677.44;5001933;28;21175;-84
2024/04/06 06:41:43;;;;;;;5.55;2.80;;;;;;;10.77;100.00;100677.66;5001517;28;20422;-84
2024/04/06 06:44:10;;;;;;;10.05;3.00;;;;;;;10.94;100.00;100691.72;4999992;28;20426;-84
2024/04/06 06:46:36;;;;;;;8.82;3.20;;;;;;;10.90;100.00;100698.84;5001103;28;20753;-84
2024/04/06 06:49:04;;;;;;;10.50;3.20;;;;;;;10.98;100.00;100698.25;4999712;28;20410;-84
2024/04/06 06:51:32;;;;;;;8.30;3.15;;;;;;;11.18;100.00;100707.38;5001745;28;20936;-83
2024/04/06 06:53:59;;;;;;;5.78;2.72;;;;;;;11.34;100.00;100702.63;5000654;28;20431;-84
2024/04/06 06:56:26;;;;;;;8.98;3.00;;;;;;;11.50;100.00;100701.41;5013964;28;20872;-85
2024/04/06 06:58:54;;;;;;;8.45;2.95;;;;;;;11.47;100.00;100704.69;4998522;28;20422;-85
2024/04/06 07:01:21;;;;;;;9.70;2.90;;;;;;;11.47;100.00;100715.59;4995139;28;20446;-84
2024/04/06 07:03:48;;;;;;;7.28;2.42;;;;;;;11.39;100.00;100714.28;4995690;28;20432;-85
2024/04/06 07:06:15;;;;;;;7.53;2.40;;;;;;;11.46;100.00;100713.16;5001754;28;20431;-85
2024/04/06 07:08:44;;;;;;;7.88;2.80;;;;;;;11.71;100.00;100717.56;4981540;28;20424;-84
2024/04/06 07:11:12;;;;;;;10.88;2.92;;;;;;;11.79;100.00;100721.59;4998652;28;20419;-85
2024/04/06 07:13:39;;;;;;;10.38;3.42;;;;;;;11.84;100.00;100710.66;5000287;28;20752;-83
2024/04/06 07:16:07;;;;;;;9.13;3.17;;;;;;;11.99;100.00;100712.44;4990590;28;20434;-84
2024/04/06 07:18:37;;;;;;;9.88;3.08;;;;;;;12.11;100.00;100718.31;4989729;28;20442;-85
2024/04/06 07:21:04;;;;;;;7.97;2.88;;;;;;;12.18;100.00;100717.94;4971536;28;20445;-84
2024/04/06 07:23:32;;;;;;;9.20;3.10;;;;;;;12.24;100.00;100723.06;4984393;28;20447;-82
2024/04/06 07:25:59;;;;;;;9.48;3.10;;;;;;;12.22;100.00;100728.00;4996140;28;20431;-83
2024/04/06 07:28:27;;;;;;;7.87;3.00;;;;;;;12.27;100.00;100718.13;4991033;28;20780;-82
2024/04/06 07:30:53;;;;;;;10.10;3.20;;;;;;;12.36;100.00;100721.84;4990586;28;20428;-83
2024/04/06 07:33:21;;;;;;;7.75;3.30;;;;;;;12.42;100.00;100735.13;4990759;28;20420;-83
2024/04/06 07:35:48;;;;;;;7.97;3.05;;;;;;;12.50;100.00;100730.16;4997476;28;20432;-84
2024/04/06 07:38:16;;;;;;;10.60;2.88;;;;;;;12.66;100.00;100747.16;4995476;28;20434;-84
2024/04/06 07:40:43;;;;;;;8.13;2.92;;;;;;;12.78;100.00;100741.28;4989526;28;20433;-83
2024/04/06 07:43:12;;;;;;;10.27;2.97;;;;;;;12.78;100.00;100758.47;4980192;28;20435;-82
2024/04/06 07:45:38;;;;;;;9.65;3.35;;;;;;;12.74;100.00;100763.69;4995357;28;20414;-83
2024/04/06 07:48:06;;;;;;;10.68;3.00;;;;;;;12.95;100.00;100754.44;4991560;28;20433;-83
2024/04/06 07:50:34;;;;;;;9.88;3.40;;;;;;;12.96;100.00;100765.06;4990212;28;20459;-84
2024/04/06 07:53:01;;;;;;;8.93;2.90;;;;;;;13.24;100.00;100754.28;4979029;28;20430;-85
2024/04/06 07:55:29;;;;;;;14.43;3.40;;;;;;;13.25;100.00;100748.53;4995855;28;20427;-83
2024/04/06 07:57:57;;;;;;;13.95;5.45;;;;;;;13.33;100.00;100741.59;4992836;28;20435;-83
2024/04/06 08:00:25;;;;;;;9.13;2.90;;;;;;;13.47;100.00;100747.13;4997607;28;20440;-83
2024/04/06 08:02:52;;;;;;;11.93;3.50;;;;;;;13.43;100.00;100744.16;4978190;28;20432;-82
2024/04/06 08:05:18;;;;;;;10.60;3.10;;;;;;;13.67;100.00;100742.44;4993548;28;20799;-82
2024/04/06 08:07:46;;;;;;;9.57;3.33;;;;;;;13.71;100.00;100757.97;4980805;28;20913;-83
2024/04/06 08:10:14;;;;;;;10.73;3.33;;;;;;;13.83;100.00;100760.22;4958976;28;20433;-82
2024/04/06 08:12:43;;;;;;;11.57;4.45;;;;;;;13.78;100.00;100752.09;4978497;28;20425;-82
2024/04/06 08:15:09;;;;;;;12.25;4.72;;;;;;;14.03;100.00;100755.50;4956338;28;20432;-83
2024/04/06 08:17:41;;;;;;;11.70;4.47;;;;;;;13.99;100.00;100755.31;4960848;28;20452;-82
2024/04/06 08:20:08;;;;;;;8.85;4.70;;;;;;;14.11;100.00;100757.53;4970643;28;20433;-82
2024/04/06 08:22:36;;;;;;;11.70;5.20;;;;;;;14.07;100.00;100746.41;4960828;28;20464;-82
2024/04/06 08:25:04;;;;;;;13.85;5.53;;;;;;;14.17;100.00;100747.31;4960756;28;21051;-82
2024/04/06 08:27:33;;;;;;;14.20;7.78;;;;;;;14.14;100.00;100759.69;4961439;28;20432;-82
2024/04/06 08:29:59;;;;;;;13.07;6.28;;;;;;;14.28;100.00;100751.50;4945664;28;20443;-82
2024/04/06 08:32:29;;;;;;;13.57;5.97;;;;;;;14.49;100.00;100748.38;4948524;28;20440;-82
2024/04/06 08:34:58;;;;;;;9.45;5.30;;;;;;;14.51;100.00;100746.13;4958329;28;20432;-82
2024/04/06 08:37:25;;;;;;;12.43;4.88;;;;;;;14.66;100.00;100743.09;4959701;28;20994;-83
2024/04/06 08:39:52;;;;;;;11.23;5.22;;;;;;;14.95;100.00;100750.16;4964562;28;20440;-82
2024/04/06 08:42:21;;;;;;;10.43;4.87;;;;;;;14.94;100.00;100760.31;4967563;28;20443;-82
2024/04/06 08:44:48;;;;;;;8.73;4.97;;;;;;;15.01;100.00;100754.41;4964809;28;20428;-82
2024/04/06 08:47:17;;;;;;;9.90;4.80;;;;;;;15.11;100.00;100754.19;4948114;28;20876;-85
2024/04/06 08:49:43;;;;;;;10.65;5.28;;;;;;;15.40;100.00;100747.47;4965240;28;20433;-84
2024/04/06 08:52:13;;;;;;;9.70;5.30;;;;;;;15.24;100.00;100741.53;4956274;28;21024;-83
2024/04/06 08:54:40;;;;;;;9.93;5.10;;;;;;;15.24;100.00;100741.53;4961774;28;20433;-84
2024/04/06 08:57:08;;;;;;;10.98;4.95;;;;;;;15.53;100.00;100750.47;4968800;28;20905;-83
2024/04/06 08:59:34;;;;;;;10.10;5.00;;;;;;;15.54;100.00;100752.09;4970391;28;20428;-83
2024/04/06 09:02:03;;;;;;;12.15;5.22;;;;;;;15.53;100.00;100748.53;4968469;28;20432;-82
2024/04/06 09:04:29;;;;;;;11.32;5.35;;;;;;;15.55;100.00;100738.06;4968204;28;20428;-83
2024/04/06 09:06:56;;;;;;;9.63;5.00;;;;;;;15.67;100.00;100737.50;4946195;28;20428;-82
2024/04/06 09:09:24;;;;;;;10.23;5.00;;;;;;;15.84;100.00;100736.00;4943432;28;20453;-83
2024/04/06 09:11:52;;;;;;;10.40;5.00;;;;;;;15.92;100.00;100735.25;4966045;28;20469;-83
2024/04/06 09:14:18;;;;;;;9.77;4.97;;;;;;;15.86;100.00;100737.31;4984876;28;20804;-82
2024/04/06 09:16:46;;;;;;;17.15;8.80;;;;;;;16.10;100.00;100731.50;4990837;28;20795;-82
2024/04/06 09:19:12;;;;;;;10.02;5.00;;;;;;;16.04;100.00;100719.00;4992703;28;20427;-86
2024/04/06 09:21:39;;;;;;;9.65;4.90;;;;;;;16.02;100.00;100712.22;4990561;28;20901;-86
2024/04/06 09:24:06;;;;;;;11.18;5.22;;;;;;;15.95;100.00;100713.50;4983893;28;20439;-87
2024/04/06 09:26:35;;;;;;;11.90;5.50;;;;;;;16.15;100.00;100712.09;4988423;28;20513;-85
2024/04/06 09:29:01;;;;;;;11.23;5.45;;;;;;;16.24;100.00;100716.81;4992496;28;20436;-84
2024/04/06 09:31:30;;;;;;;12.60;6.25;;;;;;;15.97;100.00;100722.19;4984441;28;20901;-86
2024/04/06 09:33:58;;;;;;;11.27;6.13;;;;;;;15.81;100.00;100729.22;4991640;28;20781;-84
2024/04/06 09:36:26;;;;;;;12.32;6.13;;;;;;;15.80;100.00;100733.09;4997357;28;20745;-86
2024/04/06 09:38:54;;;;;;;11.43;5.97;;;;;;;15.70;100.00;100728.66;4976278;28;20425;-85
2024/04/06 09:41:23;;;;;;;14.18;5.97;;;;;;;15.85;100.00;100730.22;4993525;28;20432;-84
2024/04/06 09:43:52;;;;;;;19.48;10.77;;;;;;;15.91;100.00;100726.22;4992947;28;20424;-85
2024/04/06 09:46:20;;;;;;;16.67;6.72;;;;;;;16.20;100.00;100713.94;4992082;28;20428;-86
2024/04/06 09:48:48;;;;;;;11.98;5.95;;;;;;;16.13;100.00;100713.56;4992231;28;20436;-86
2024/04/06 09:51:16;;;;;;;11.97;6.17;;;;;;;16.18;100.00;100701.63;4973566;28;20460;-86
2024/04/06 09:53:43;;;;;;;10.38;5.68;;;;;;;16.39;100.00;100688.94;4976504;28;20447;-85
2024/04/06 09:56:13;;;;;;;12.43;6.28;;;;;;;16.51;100.00;100679.28;4991961;28;20434;-86
2024/04/06 09:58:46;;;;;;;12.50;6.00;;;;;;;16.57;100.00;100692.56;4975834;28;20438;-85
2024/04/06 10:01:17;;;;;;;11.05;6.30;;;;;;;16.51;100.00;100685.56;4990339;28;20425;-85
2024/04/06 10:03:45;;;;;;;11.63;6.28;;;;;;;16.52;100.00;100698.19;4992036;28;20424;-86
2024/04/06 10:06:16;;;;;;;11.43;5.90;;;;;;;16.46;100.00;100711.25;4967184;28;20444;-85
2024/04/06 10:08:47;;;;;;;12.57;6.47;;;;;;;16.30;100.00;100721.88;4984765;28;20429;-85
2024/04/06 10:11:17;;;;;;;10.07;6.43;;;;;;;16.11;100.00;100711.13;4974024;28;20434;-84
2024/04/06 10:13:53;;;;;;;13.02;6.28;;;;;;;16.30;100.00;100713.63;4991524;28;21396;-85
2024/04/06 10:16:23;;;;;;;11.93;6.28;;;;;;;16.24;100.00;100703.94;4992716;28;20455;-86
2024/04/06 10:18:50;;;;;;;12.13;5.90;;;;;;;16.34;100.00;100700.06;4991524;28;20428;-86
2024/04/06 10:21:20;;;;;;;13.45;6.63;;;;;;;16.40;100.00;100689.75;4983447;28;20442;-85
2024/04/06 10:23:47;;;;;;;10.93;6.20;;;;;;;16.35;100.00;100687.97;4970959;28;20447;-86
2024/04/06 10:26:15;;;;;;;13.20;5.93;;;;;;;16.39;100.00;100707.34;4977114;28;20783;-86
2024/04/06 10:28:43;;;;;;;13.13;6.03;;;;;;;16.60;100.00;100713.88;4988625;28;20476;-85
2024/04/06 10:31:11;;;;;;;10.00;6.20;;;;;;;16.54;100.00;100703.34;4988570;28;20530;-85
2024/04/06 10:33:39;;;;;;;12.70;6.35;;;;;;;16.59;100.00;100704.00;4992832;28;20792;-85
2024/04/06 10:36:10;;;;;;;14.07;6.03;;;;;;;16.51;100.00;100704.81;4974451;28;20519;-85
2024/04/06 10:38:38;;;;;;;12.27;6.10;;;;;;;16.78;100.00;100684.50;4975048;28;20449;-85
2024/04/06 10:41:06;;;;;;;11.15;5.90;;;;;;;16.75;100.00;100676.91;4980985;28;20436;-85
2024/04/06 10:43:32;;;;;;;13.77;5.80;;;;;;;16.78;100.00;100681.75;4988943;28;20421;-85
2024/04/06 10:46:00;;;;;;;13.05;5.53;;;;;;;16.97;100.00;100678.72;4987893;28;20432;-84
2024/04/06 10:48:27;;;;;;;11.50;5.13;;;;;;;16.95;100.00;100680.97;4971527;28;20669;-85
2024/04/06 10:50:57;;;;;;;11.80;5.70;;;;;;;16.81;100.00;100672.84;4987043;28;20424;-83
2024/04/06 10:53:24;;;;;;;11.25;5.35;;;;;;;16.84;100.00;100687.88;4971260;28;20837;-81
2024/04/06 10:55:53;;;;;;;11.65;5.20;;;;;;;16.84;100.00;100674.94;4982463;28;20430;-84
2024/04/06 10:58:20;;;;;;;9.13;5.03;;;;;;;16.90;100.00;100683.88;4963807;28;20473;-85
2024/04/06 11:00:50;;;;;;;11.30;5.72;;;;;;;16.78;100.00;100687.25;4986868;28;20790;-85
2024/04/06 11:03:20;;;;;;;9.67;5.10;;;;;;;16.78;100.00;100690.00;4967688;28;20432;-85
2024/04/06 11:05:48;;;;;;;10.65;5.20;;;;;;;16.71;100.00;100689.66;4968577;28;21120;-85
2024/04/06 11:08:16;;;;;;;13.43;5.40;;;;;;;16.77;100.00;100702.09;4992086;28;20426;-84
2024/04/06 11:10:45;;;;;;;9.23;4.78;;;;;;;16.93;100.00;100704.41;4992422;28;20424;-85
2024/04/06 11:13:13;;;;;;;11.65;4.47;;;;;;;16.99;100.00;100703.94;4933877;28;20471;-85
2024/04/06 11:15:41;;;;;;;11.75;4.53;;;;;;;17.17;100.00;100701.19;4948010;28;20447;-85
2024/04/06 11:18:08;;;;;;;10.48;4.97;;;;;;;17.33;100.00;100705.06;4964148;28;20987;-84